Langruth, Canada
Current Conditions -  °F | °C
As of 4:00 AM on Sunday 26 Oct 2014 (Local Time) from CYBR Reporting Station
Broken Clouds Broken Clouds  
Wind Chill: 26°   Ceiling: 25000
Heat Index: 34°   Visibility: 15mi
Dew Point: 27°   Wind: 10mph
Humidity: 75%   Direction: 80°E
Pressure: 29.86"   Gusts: NA
Location:  50.38°N, 98.67°W
Report Text: CYBR 260900Z 08009KT 15SM BKN250 01/M03 A2986 RMK CI6 SLP125
Loading
Personal Weather Stations






























Interactive Weather Map
Tropical Storm Tracking
New forecast layout! Learn more

10-Day Weather Forecast

Advertisements
Track Severe Weather on mobile